createdAt,value
2018-06-10T00:02:30.809Z,21.15
2018-06-10T00:07:34.159Z,20.10
2018-06-10T00:12:37.514Z,21.53
2018-06-10T00:17:40.917Z,21.33
2018-06-10T00:22:44.298Z,21.77
2018-06-10T00:27:47.706Z,20.83
2018-06-10T00:32:51.072Z,20.75
2018-06-10T00:37:54.466Z,20.75
2018-06-10T00:42:57.818Z,19.40
2018-06-10T00:48:01.159Z,20.27
2018-06-10T00:53:04.668Z,18.77
2018-06-10T00:58:08.011Z,20.77
2018-06-10T01:03:17.176Z,18.52
2018-06-10T01:08:20.588Z,16.35
2018-06-10T01:13:23.942Z,17.70
2018-06-10T01:18:27.301Z,18.33
2018-06-10T01:23:30.673Z,19.48
2018-06-10T01:28:34.068Z,18.23
2018-06-10T01:33:37.489Z,19.20
2018-06-10T01:38:40.837Z,18.48
2018-06-10T01:43:44.226Z,18.60
2018-06-10T01:48:47.615Z,17.35
2018-06-10T01:53:50.939Z,18.45
2018-06-10T01:58:54.347Z,17.45
2018-06-10T02:03:57.712Z,20.05
2018-06-10T02:09:01.135Z,16.43
2018-06-10T02:14:04.513Z,20.35
2018-06-10T02:19:07.927Z,19.73
2018-06-10T02:24:11.246Z,20.00
2018-06-10T02:29:14.613Z,19.07
2018-06-10T02:34:18.006Z,20.13
2018-06-10T02:39:21.477Z,22.07
2018-06-10T02:44:24.854Z,19.00
2018-06-10T02:49:28.568Z,19.32
2018-06-10T02:54:31.929Z,17.17
2018-06-10T02:59:35.275Z,16.97
2018-06-10T03:04:38.735Z,17.87
2018-06-10T03:09:42.119Z,20.83
2018-06-10T03:14:45.485Z,17.20
2018-06-10T03:19:48.785Z,18.62
2018-06-10T03:24:52.162Z,17.20
2018-06-10T03:29:55.531Z,18.60
2018-06-10T03:34:58.968Z,16.67
2018-06-10T03:40:02.371Z,19.32
2018-06-10T03:45:05.695Z,18.35
2018-06-10T03:50:09.062Z,20.20
2018-06-10T03:55:12.472Z,18.82
2018-06-10T04:00:15.904Z,18.00
2018-06-10T04:05:19.271Z,19.00
2018-06-10T04:10:22.612Z,16.25
2018-06-10T04:15:26.009Z,18.33
2018-06-10T04:20:29.355Z,18.45
2018-06-10T04:25:32.698Z,17.45
2018-06-10T04:30:36.031Z,19.23
2018-06-10T04:35:39.444Z,18.73
2018-06-10T04:40:42.838Z,19.30
2018-06-10T04:45:47.183Z,24.20
2018-06-10T04:50:50.551Z,26.17
2018-06-10T04:55:53.930Z,26.40
2018-06-10T05:00:57.271Z,27.40
2018-06-10T05:06:00.886Z,25.82
2018-06-10T05:11:04.199Z,28.10
2018-06-10T05:16:07.558Z,26.97
2018-06-10T05:21:10.970Z,27.70
2018-06-10T05:26:14.363Z,24.85
2018-06-10T05:31:18.692Z,26.60
2018-06-10T05:36:22.151Z,27.43
2018-06-10T05:41:25.541Z,28.42
2018-06-10T05:46:28.971Z,25.90
2018-06-10T05:51:32.390Z,25.67
2018-06-10T05:56:35.676Z,25.92
2018-06-10T06:01:38.985Z,24.70
2018-06-10T06:06:42.395Z,23.85
2018-06-10T06:11:45.820Z,24.30
2018-06-10T06:16:49.202Z,25.47
2018-06-10T06:21:54.375Z,24.45
2018-06-10T06:26:58.419Z,28.60
2018-06-10T06:32:02.110Z,25.20
2018-06-10T06:37:05.896Z,22.60
2018-06-10T06:42:10.158Z,24.67
2018-06-10T06:47:14.796Z,21.52
2018-06-10T06:52:20.530Z,21.00
2018-06-10T06:57:23.921Z,25.47
2018-06-10T07:02:28.321Z,28.98
2018-06-10T07:07:31.798Z,25.45
2018-06-10T07:12:35.808Z,25.97
2018-06-10T07:17:39.246Z,26.97
2018-06-10T07:22:42.666Z,23.18
2018-06-10T07:27:47.184Z,27.35
2018-06-10T07:32:50.569Z,24.70
2018-06-10T07:37:54.024Z,21.10
2018-06-10T07:42:59.395Z,20.30
2018-06-10T07:48:02.756Z,19.25
2018-06-10T07:53:06.133Z,21.82
2018-06-10T07:58:12.491Z,18.57
2018-06-10T08:03:15.868Z,16.77
2018-06-10T08:08:19.299Z,14.73
2018-06-10T08:13:23.147Z,17.07
2018-06-10T08:18:26.541Z,17.07
2018-06-10T08:23:29.921Z,15.87
2018-06-10T08:28:33.295Z,15.00
2018-06-10T08:33:36.665Z,15.45
2018-06-10T08:38:40.063Z,15.03
2018-06-10T08:43:43.507Z,16.07
2018-06-10T08:48:46.926Z,14.18
2018-06-10T08:53:50.285Z,14.47
2018-06-10T08:58:54.050Z,12.60
2018-06-10T09:03:57.411Z,14.90
2018-06-10T09:09:00.848Z,14.15
2018-06-10T09:14:04.467Z,14.30
2018-06-10T09:19:07.892Z,14.73
2018-06-10T09:24:11.229Z,15.40
2018-06-10T09:29:14.551Z,13.60
2018-06-10T09:34:17.901Z,14.13
2018-06-10T09:39:21.396Z,16.67
2018-06-10T09:44:24.839Z,15.93
2018-06-10T09:49:28.193Z,14.00
2018-06-10T09:54:31.517Z,14.60
2018-06-10T09:59:34.908Z,13.35
2018-06-10T10:04:38.251Z,12.95
2018-06-10T10:09:41.613Z,14.70
2018-06-10T10:14:45.012Z,13.10
2018-06-10T10:19:48.352Z,11.85
2018-06-10T10:24:51.762Z,11.08
2018-06-10T10:29:55.187Z,10.47
2018-06-10T10:34:58.598Z,11.40
2018-06-10T10:40:02.013Z,11.12
2018-06-10T10:45:05.586Z,11.53
2018-06-10T10:50:08.964Z,11.03
2018-06-10T10:55:12.359Z,10.08
2018-06-10T11:00:15.680Z,9.50
2018-06-10T11:05:19.084Z,9.70
2018-06-10T11:10:22.438Z,9.10
2018-06-10T11:15:25.836Z,9.18
2018-06-10T11:20:29.274Z,8.17
2018-06-10T11:25:32.679Z,8.73
2018-06-10T11:30:36.061Z,8.35
2018-06-10T11:35:39.447Z,8.08
2018-06-10T11:40:42.847Z,8.25
2018-06-10T11:45:46.198Z,9.10
2018-06-10T11:50:49.611Z,8.70
2018-06-10T11:55:53.079Z,8.80
2018-06-10T12:00:56.565Z,8.58
2018-06-10T12:06:00.816Z,8.10
2018-06-10T12:11:04.184Z,8.70
2018-06-10T12:16:07.579Z,7.45
2018-06-10T12:21:11.102Z,7.80
2018-06-10T12:26:14.507Z,8.60
2018-06-10T12:31:18.101Z,7.67
2018-06-10T12:36:21.495Z,8.60
2018-06-10T12:41:24.971Z,8.40
2018-06-10T12:46:28.442Z,8.80
2018-06-10T12:51:32.920Z,8.20
2018-06-10T12:56:36.380Z,8.25
2018-06-10T13:01:39.832Z,7.85
2018-06-10T13:06:43.204Z,7.80
2018-06-10T13:11:46.892Z,7.30
2018-06-10T13:16:50.312Z,7.40
2018-06-10T13:21:53.854Z,7.90
2018-06-10T13:26:57.951Z,7.80
2018-06-10T13:32:02.338Z,8.30
2018-06-10T13:37:05.826Z,8.40
2018-06-10T13:42:09.293Z,8.20
2018-06-10T13:47:12.730Z,8.68
2018-06-10T13:52:16.110Z,9.30
2018-06-10T13:57:19.822Z,10.60
2018-06-10T14:02:23.311Z,10.30
2018-06-10T14:07:26.760Z,10.72
2018-06-10T14:12:30.286Z,9.40
2018-06-10T14:17:33.955Z,7.47
2018-06-10T14:22:37.342Z,7.10
2018-06-10T14:27:40.700Z,8.50
2018-06-10T14:32:44.099Z,8.85
2018-06-10T14:37:47.578Z,8.63
2018-06-10T14:42:50.932Z,9.28
2018-06-10T14:47:54.278Z,7.70
2018-06-10T14:58:01.676Z,7.90
2018-06-10T15:03:05.057Z,7.60
2018-06-10T15:08:08.448Z,7.40
2018-06-10T15:13:11.899Z,7.90
2018-06-10T15:18:15.309Z,7.47
2018-06-10T15:23:18.606Z,7.70
2018-06-10T15:28:21.986Z,7.83
2018-06-10T15:33:25.309Z,8.18
2018-06-10T15:38:28.635Z,8.00
2018-06-10T15:43:32.142Z,7.62
2018-06-10T15:48:35.492Z,7.70
2018-06-10T15:53:38.905Z,7.03
2018-06-10T15:58:42.246Z,6.90
2018-06-10T16:03:45.604Z,6.60
2018-06-10T16:08:48.990Z,7.17
2018-06-10T16:13:53.294Z,7.40
2018-06-10T16:18:57.336Z,8.60
2018-06-10T16:24:01.350Z,8.20
2018-06-10T16:29:04.759Z,8.00
2018-06-10T16:34:08.161Z,7.15
2018-06-10T16:39:11.533Z,7.37
2018-06-10T16:44:14.874Z,7.50
2018-06-10T16:49:18.312Z,6.93
2018-06-10T16:54:21.579Z,7.20
2018-06-10T16:59:25.459Z,7.53
2018-06-10T17:04:28.813Z,7.50
2018-06-10T17:09:32.270Z,7.60
2018-06-10T17:14:35.734Z,7.10
2018-06-10T17:19:39.152Z,7.53
2018-06-10T17:24:42.510Z,7.20
2018-06-10T17:29:45.921Z,7.20
2018-06-10T17:34:49.307Z,8.38
2018-06-10T17:39:52.660Z,7.63
2018-06-10T17:44:56.068Z,7.60
2018-06-10T17:49:59.517Z,8.23
2018-06-10T17:55:03.136Z,7.70
2018-06-10T18:00:06.567Z,8.48
2018-06-10T18:05:10.050Z,8.10
2018-06-10T18:10:13.424Z,8.43
2018-06-10T18:15:17.343Z,7.83
2018-06-10T18:20:20.711Z,8.50
2018-06-10T18:25:24.434Z,8.48
2018-06-10T18:30:28.279Z,8.15
2018-06-10T18:35:31.689Z,7.90
2018-06-10T18:40:35.166Z,8.40
2018-06-10T18:45:40.727Z,8.63
2018-06-10T18:50:44.062Z,8.93
2018-06-10T18:55:47.430Z,7.80
2018-06-10T19:00:52.254Z,8.10
2018-06-10T19:05:55.733Z,8.88
2018-06-10T19:10:59.232Z,10.90
2018-06-10T19:16:02.682Z,10.82
2018-06-10T19:21:06.711Z,11.45
2018-06-10T19:26:15.550Z,11.55
2018-06-10T19:31:19.475Z,13.37
2018-06-10T19:36:22.890Z,11.90
2018-06-10T19:41:26.505Z,11.73
2018-06-10T19:46:29.882Z,12.03
2018-06-10T19:51:33.306Z,11.67
2018-06-10T19:56:36.705Z,10.88
2018-06-10T20:01:41.211Z,9.90
2018-06-10T20:06:45.319Z,10.93
2018-06-10T20:11:50.169Z,9.78
2018-06-10T20:16:53.335Z,9.80
2018-06-10T20:21:56.946Z,9.67
2018-06-10T20:27:00.369Z,10.32
2018-06-10T20:32:03.875Z,9.83
2018-06-10T20:37:07.455Z,10.40
2018-06-10T20:42:10.871Z,10.98
2018-06-10T20:47:14.451Z,10.53
2018-06-10T20:52:18.226Z,10.23
2018-06-10T20:57:21.649Z,10.20
2018-06-10T21:02:25.259Z,10.93
2018-06-10T21:07:28.705Z,9.73
2018-06-10T21:12:32.141Z,10.23
2018-06-10T21:17:36.931Z,10.75
2018-06-10T21:22:41.035Z,10.23
2018-06-10T21:27:45.233Z,10.45
2018-06-10T21:32:48.646Z,11.12
2018-06-10T21:37:52.040Z,10.45
2018-06-10T21:42:55.579Z,9.40
2018-06-10T21:47:58.933Z,10.60
2018-06-10T21:53:02.400Z,9.65
2018-06-10T21:58:06.670Z,10.55
2018-06-10T22:03:10.698Z,10.80
2018-06-10T22:08:14.085Z,10.70
2018-06-10T22:13:18.118Z,10.07
2018-06-10T22:18:21.570Z,11.22
2018-06-10T22:23:25.026Z,10.90
2018-06-10T22:28:28.524Z,10.43
2018-06-10T22:33:31.936Z,11.97
2018-06-10T22:38:39.454Z,11.07
2018-06-10T22:43:42.932Z,11.43
2018-06-10T22:48:46.444Z,11.30
2018-06-10T22:54:10.315Z,10.65
2018-06-10T22:59:13.870Z,11.50
2018-06-10T23:04:17.395Z,11.83
2018-06-10T23:09:20.994Z,11.20
2018-06-10T23:14:24.388Z,10.43
2018-06-10T23:19:27.764Z,10.80
2018-06-10T23:24:31.176Z,10.47
2018-06-10T23:29:34.636Z,10.65
2018-06-10T23:34:38.114Z,11.18
2018-06-10T23:39:41.468Z,10.80
2018-06-10T23:44:44.888Z,11.40
2018-06-10T23:49:48.317Z,11.63
2018-06-10T23:54:51.681Z,10.72
2018-06-10T23:59:55.032Z,12.13
